sensor_id;sensor_type;location;lat;lon;timestamp;P1;durP1;ratioP1;P2;durP2;ratioP2
35225;SDS011;21813;49.686;21.766;2023-07-16T17:31:18;8.85;;;4.32;;
35225;SDS011;21813;49.686;21.766;2023-07-16T17:33:46;5.72;;;4.10;;
35225;SDS011;21813;49.686;21.766;2023-07-16T17:36:12;6.38;;;4.20;;
35225;SDS011;21813;49.686;21.766;2023-07-16T17:38:42;6.43;;;3.40;;
35225;SDS011;21813;49.686;21.766;2023-07-16T17:41:08;5.32;;;4.18;;
35225;SDS011;21813;49.686;21.766;2023-07-16T17:43:39;5.80;;;3.58;;
35225;SDS011;21813;49.686;21.766;2023-07-16T17:46:04;5.03;;;3.72;;
35225;SDS011;21813;49.686;21.766;2023-07-16T17:48:30;4.72;;;3.22;;
35225;SDS011;21813;49.686;21.766;2023-07-16T17:50:56;3.92;;;3.53;;
35225;SDS011;21813;49.686;21.766;2023-07-16T17:53:22;5.18;;;3.25;;
35225;SDS011;21813;49.686;21.766;2023-07-16T17:55:48;4.03;;;3.50;;
35225;SDS011;21813;49.686;21.766;2023-07-16T17:58:14;8.48;;;4.55;;
35225;SDS011;21813;49.686;21.766;2023-07-16T18:00:41;4.32;;;3.72;;
35225;SDS011;21813;49.686;21.766;2023-07-16T18:03:07;10.57;;;3.78;;
35225;SDS011;21813;49.686;21.766;2023-07-16T18:05:33;5.88;;;3.67;;
35225;SDS011;21813;49.686;21.766;2023-07-16T18:08:06;12.68;;;3.90;;
35225;SDS011;21813;49.686;21.766;2023-07-16T18:10:35;8.60;;;3.70;;
35225;SDS011;21813;49.686;21.766;2023-07-16T18:13:55;5.45;;;3.50;;
35225;SDS011;21813;49.686;21.766;2023-07-16T18:19:10;4.03;;;3.25;;
35225;SDS011;21813;49.686;21.766;2023-07-16T18:21:38;7.82;;;4.05;;
35225;SDS011;21813;49.686;21.766;2023-07-16T18:24:04;6.68;;;3.60;;
35225;SDS011;21813;49.686;21.766;2023-07-16T18:26:32;4.72;;;3.50;;
35225;SDS011;21813;49.686;21.766;2023-07-16T18:28:59;8.82;;;3.85;;
35225;SDS011;21813;49.686;21.766;2023-07-16T18:31:27;10.30;;;3.92;;
35225;SDS011;21813;49.686;21.766;2023-07-16T18:33:53;8.20;;;3.65;;
35225;SDS011;21813;49.686;21.766;2023-07-16T18:36:20;5.15;;;4.03;;
35225;SDS011;21813;49.686;21.766;2023-07-16T18:39:09;9.40;;;3.42;;
35225;SDS011;21813;49.686;21.766;2023-07-16T18:41:37;4.97;;;3.63;;
35225;SDS011;21813;49.686;21.766;2023-07-16T18:44:02;5.88;;;3.38;;
35225;SDS011;21813;49.686;21.766;2023-07-16T18:47:20;4.85;;;3.60;;
35225;SDS011;21813;49.686;21.766;2023-07-16T18:49:48;5.05;;;3.75;;
35225;SDS011;21813;49.686;21.766;2023-07-16T18:52:16;8.20;;;3.60;;
35225;SDS011;21813;49.686;21.766;2023-07-16T18:54:42;8.82;;;3.83;;
35225;SDS011;21813;49.686;21.766;2023-07-16T18:57:09;9.45;;;4.65;;
35225;SDS011;21813;49.686;21.766;2023-07-16T18:59:36;6.45;;;4.10;;
35225;SDS011;21813;49.686;21.766;2023-07-16T19:02:03;7.13;;;4.57;;
35225;SDS011;21813;49.686;21.766;2023-07-16T19:04:29;8.18;;;4.30;;
35225;SDS011;21813;49.686;21.766;2023-07-16T19:06:56;6.13;;;4.07;;
35225;SDS011;21813;49.686;21.766;2023-07-16T19:09:25;5.93;;;4.13;;
35225;SDS011;21813;49.686;21.766;2023-07-16T19:16:06;11.07;;;4.40;;
35225;SDS011;21813;49.686;21.766;2023-07-16T19:18:34;9.27;;;4.25;;
35225;SDS011;21813;49.686;21.766;2023-07-16T19:21:00;5.45;;;4.65;;
35225;SDS011;21813;49.686;21.766;2023-07-16T19:23:42;7.00;;;5.00;;
35225;SDS011;21813;49.686;21.766;2023-07-16T19:26:50;6.50;;;4.55;;
35225;SDS011;21813;49.686;21.766;2023-07-16T19:29:13;6.75;;;4.60;;
35225;SDS011;21813;49.686;21.766;2023-07-16T19:41:16;12.10;;;4.05;;
35225;SDS011;21813;49.686;21.766;2023-07-16T19:43:42;5.00;;;4.45;;
35225;SDS011;21813;49.686;21.766;2023-07-16T19:46:08;11.20;;;5.32;;
35225;SDS011;21813;49.686;21.766;2023-07-16T19:48:34;7.18;;;4.38;;
35225;SDS011;21813;49.686;21.766;2023-07-16T19:51:00;10.77;;;4.50;;
35225;SDS011;21813;49.686;21.766;2023-07-16T19:53:28;7.57;;;5.10;;
35225;SDS011;21813;49.686;21.766;2023-07-16T19:55:57;6.90;;;4.78;;
35225;SDS011;21813;49.686;21.766;2023-07-16T19:58:24;6.97;;;5.15;;
35225;SDS011;21813;49.686;21.766;2023-07-16T20:00:50;9.65;;;5.15;;
35225;SDS011;21813;49.686;21.766;2023-07-16T20:03:17;6.07;;;4.95;;
35225;SDS011;21813;49.686;21.766;2023-07-16T20:05:42;8.57;;;5.63;;
35225;SDS011;21813;49.686;21.766;2023-07-16T20:08:09;8.10;;;4.85;;
35225;SDS011;21813;49.686;21.766;2023-07-16T20:10:43;9.13;;;5.40;;
35225;SDS011;21813;49.686;21.766;2023-07-16T20:13:11;11.38;;;5.47;;
35225;SDS011;21813;49.686;21.766;2023-07-16T20:15:36;7.30;;;5.43;;
35225;SDS011;21813;49.686;21.766;2023-07-16T20:18:04;8.43;;;5.55;;
35225;SDS011;21813;49.686;21.766;2023-07-16T20:20:31;7.68;;;5.32;;
35225;SDS011;21813;49.686;21.766;2023-07-16T20:22:59;11.63;;;5.55;;
35225;SDS011;21813;49.686;21.766;2023-07-16T20:25:33;7.32;;;5.80;;
35225;SDS011;21813;49.686;21.766;2023-07-16T20:27:59;7.93;;;5.80;;
35225;SDS011;21813;49.686;21.766;2023-07-16T20:30:25;8.38;;;6.18;;
35225;SDS011;21813;49.686;21.766;2023-07-16T20:32:51;7.45;;;5.85;;
35225;SDS011;21813;49.686;21.766;2023-07-16T20:35:19;8.32;;;6.13;;
35225;SDS011;21813;49.686;21.766;2023-07-16T20:37:45;9.55;;;5.82;;
35225;SDS011;21813;49.686;21.766;2023-07-16T20:40:11;6.63;;;5.40;;
35225;SDS011;21813;49.686;21.766;2023-07-16T20:42:38;10.77;;;5.78;;
35225;SDS011;21813;49.686;21.766;2023-07-16T20:45:13;8.20;;;5.53;;
35225;SDS011;21813;49.686;21.766;2023-07-16T20:47:48;10.80;;;4.95;;
35225;SDS011;21813;49.686;21.766;2023-07-16T20:50:19;7.15;;;5.22;;
35225;SDS011;21813;49.686;21.766;2023-07-16T20:52:49;7.65;;;4.93;;
35225;SDS011;21813;49.686;21.766;2023-07-16T20:55:15;7.93;;;5.38;;
35225;SDS011;21813;49.686;21.766;2023-07-16T20:57:44;6.65;;;5.22;;
35225;SDS011;21813;49.686;21.766;2023-07-16T21:00:12;12.00;;;5.68;;
35225;SDS011;21813;49.686;21.766;2023-07-16T21:02:44;6.53;;;4.47;;
35225;SDS011;21813;49.686;21.766;2023-07-16T21:05:11;10.82;;;6.40;;
35225;SDS011;21813;49.686;21.766;2023-07-16T21:07:38;6.95;;;5.88;;
35225;SDS011;21813;49.686;21.766;2023-07-16T21:10:05;9.85;;;5.72;;
35225;SDS011;21813;49.686;21.766;2023-07-16T21:12:33;7.82;;;5.45;;
35225;SDS011;21813;49.686;21.766;2023-07-16T21:15:08;7.97;;;4.82;;
35225;SDS011;21813;49.686;21.766;2023-07-16T21:17:36;7.78;;;5.72;;
35225;SDS011;21813;49.686;21.766;2023-07-16T21:20:02;7.45;;;4.63;;
35225;SDS011;21813;49.686;21.766;2023-07-16T21:22:36;5.88;;;4.38;;
35225;SDS011;21813;49.686;21.766;2023-07-16T21:25:03;6.57;;;4.95;;
35225;SDS011;21813;49.686;21.766;2023-07-16T21:27:32;7.35;;;4.25;;
35225;SDS011;21813;49.686;21.766;2023-07-16T21:30:04;6.18;;;5.38;;
35225;SDS011;21813;49.686;21.766;2023-07-16T21:32:31;10.25;;;5.35;;
35225;SDS011;21813;49.686;21.766;2023-07-16T21:34:57;5.20;;;4.70;;
35225;SDS011;21813;49.686;21.766;2023-07-16T21:37:24;8.00;;;4.80;;
35225;SDS011;21813;49.686;21.766;2023-07-16T21:39:50;7.85;;;4.65;;
35225;SDS011;21813;49.686;21.766;2023-07-16T21:42:17;7.45;;;4.63;;
35225;SDS011;21813;49.686;21.766;2023-07-16T21:44:42;4.68;;;4.22;;
35225;SDS011;21813;49.686;21.766;2023-07-16T21:47:10;6.95;;;5.30;;
35225;SDS011;21813;49.686;21.766;2023-07-16T21:49:35;6.70;;;4.57;;
35225;SDS011;21813;49.686;21.766;2023-07-16T21:52:05;7.07;;;5.53;;
35225;SDS011;21813;49.686;21.766;2023-07-16T21:54:35;6.68;;;4.60;;
35225;SDS011;21813;49.686;21.766;2023-07-16T21:57:03;6.50;;;4.57;;
35225;SDS011;21813;49.686;21.766;2023-07-16T21:59:29;6.75;;;4.68;;
35225;SDS011;21813;49.686;21.766;2023-07-16T22:01:57;8.70;;;5.95;;
35225;SDS011;21813;49.686;21.766;2023-07-16T22:04:25;6.80;;;5.07;;
35225;SDS011;21813;49.686;21.766;2023-07-16T22:06:53;7.53;;;4.50;;
35225;SDS011;21813;49.686;21.766;2023-07-16T22:09:18;5.85;;;4.55;;
35225;SDS011;21813;49.686;21.766;2023-07-16T22:11:54;7.28;;;4.85;;
35225;SDS011;21813;49.686;21.766;2023-07-16T22:14:20;7.15;;;5.30;;
35225;SDS011;21813;49.686;21.766;2023-07-16T22:16:47;10.20;;;5.10;;
35225;SDS011;21813;49.686;21.766;2023-07-16T22:19:13;5.78;;;4.50;;
35225;SDS011;21813;49.686;21.766;2023-07-16T22:21:38;7.70;;;4.28;;
35225;SDS011;21813;49.686;21.766;2023-07-16T22:24:04;9.52;;;4.60;;
35225;SDS011;21813;49.686;21.766;2023-07-16T22:26:31;6.60;;;4.90;;
35225;SDS011;21813;49.686;21.766;2023-07-16T22:28:57;8.45;;;5.30;;
35225;SDS011;21813;49.686;21.766;2023-07-16T22:31:24;8.32;;;5.32;;
35225;SDS011;21813;49.686;21.766;2023-07-16T22:33:50;9.60;;;4.80;;
35225;SDS011;21813;49.686;21.766;2023-07-16T22:36:16;6.18;;;4.50;;
35225;SDS011;21813;49.686;21.766;2023-07-16T22:38:41;7.20;;;4.90;;
35225;SDS011;21813;49.686;21.766;2023-07-16T22:41:07;7.13;;;4.70;;
35225;SDS011;21813;49.686;21.766;2023-07-16T22:43:33;7.35;;;5.40;;
35225;SDS011;21813;49.686;21.766;2023-07-16T22:45:59;6.28;;;5.20;;
35225;SDS011;21813;49.686;21.766;2023-07-16T22:48:25;7.38;;;4.72;;
35225;SDS011;21813;49.686;21.766;2023-07-16T22:50:51;8.98;;;5.72;;
35225;SDS011;21813;49.686;21.766;2023-07-16T22:53:17;5.78;;;5.22;;
35225;SDS011;21813;49.686;21.766;2023-07-16T22:55:44;6.65;;;4.60;;
35225;SDS011;21813;49.686;21.766;2023-07-16T22:58:10;7.35;;;5.18;;
35225;SDS011;21813;49.686;21.766;2023-07-16T23:00:37;5.70;;;4.82;;
35225;SDS011;21813;49.686;21.766;2023-07-16T23:03:03;8.73;;;5.82;;
35225;SDS011;21813;49.686;21.766;2023-07-16T23:05:30;6.68;;;5.20;;
35225;SDS011;21813;49.686;21.766;2023-07-16T23:07:56;5.93;;;5.32;;
35225;SDS011;21813;49.686;21.766;2023-07-16T23:10:22;10.60;;;5.07;;
35225;SDS011;21813;49.686;21.766;2023-07-16T23:12:47;5.85;;;4.80;;
35225;SDS011;21813;49.686;21.766;2023-07-16T23:15:16;10.75;;;4.88;;
35225;SDS011;21813;49.686;21.766;2023-07-16T23:17:44;5.10;;;4.57;;
35225;SDS011;21813;49.686;21.766;2023-07-16T23:20:10;10.25;;;6.20;;
35225;SDS011;21813;49.686;21.766;2023-07-16T23:22:39;6.85;;;5.18;;
35225;SDS011;21813;49.686;21.766;2023-07-16T23:25:06;7.10;;;4.65;;
35225;SDS011;21813;49.686;21.766;2023-07-16T23:27:32;9.38;;;5.75;;
35225;SDS011;21813;49.686;21.766;2023-07-16T23:29:58;13.57;;;5.70;;
35225;SDS011;21813;49.686;21.766;2023-07-16T23:32:24;6.93;;;4.78;;
35225;SDS011;21813;49.686;21.766;2023-07-16T23:34:50;6.95;;;5.30;;
35225;SDS011;21813;49.686;21.766;2023-07-16T23:37:16;6.22;;;5.43;;
35225;SDS011;21813;49.686;21.766;2023-07-16T23:39:42;6.80;;;5.13;;
35225;SDS011;21813;49.686;21.766;2023-07-16T23:42:08;10.00;;;5.45;;
35225;SDS011;21813;49.686;21.766;2023-07-16T23:44:34;8.65;;;5.18;;
35225;SDS011;21813;49.686;21.766;2023-07-16T23:46:59;7.35;;;5.50;;
35225;SDS011;21813;49.686;21.766;2023-07-16T23:49:26;7.70;;;5.45;;
35225;SDS011;21813;49.686;21.766;2023-07-16T23:51:52;5.38;;;4.88;;
35225;SDS011;21813;49.686;21.766;2023-07-16T23:54:18;6.80;;;5.43;;
35225;SDS011;21813;49.686;21.766;2023-07-16T23:56:44;8.23;;;5.55;;
35225;SDS011;21813;49.686;21.766;2023-07-16T23:59:10;6.63;;;5.07;;
